sensor_id;sensor_type;location;lat;lon;timestamp;temperature;humidity
7048;DHT22;3565;53.254;10.352;2023-02-13T00:00:13;6.70;99.90
7048;DHT22;3565;53.254;10.352;2023-02-13T00:02:44;6.70;99.90
7048;DHT22;3565;53.254;10.352;2023-02-13T00:05:13;6.80;99.90
7048;DHT22;3565;53.254;10.352;2023-02-13T00:07:43;6.80;99.90
7048;DHT22;3565;53.254;10.352;2023-02-13T00:10:12;6.80;99.90
7048;DHT22;3565;53.254;10.352;2023-02-13T00:12:41;6.70;99.90
7048;DHT22;3565;53.254;10.352;2023-02-13T00:15:11;6.70;99.90
7048;DHT22;3565;53.254;10.352;2023-02-13T00:17:40;6.70;99.90
7048;DHT22;3565;53.254;10.352;2023-02-13T00:20:11;6.70;99.90
7048;DHT22;3565;53.254;10.352;2023-02-13T00:22:41;6.70;99.90
7048;DHT22;3565;53.254;10.352;2023-02-13T00:25:11;6.70;99.90
7048;DHT22;3565;53.254;10.352;2023-02-13T00:27:40;6.70;99.90
7048;DHT22;3565;53.254;10.352;2023-02-13T00:30:12;6.70;99.90
7048;DHT22;3565;53.254;10.352;2023-02-13T00:32:42;6.70;99.90
7048;DHT22;3565;53.254;10.352;2023-02-13T00:35:11;6.70;99.90
7048;DHT22;3565;53.254;10.352;2023-02-13T00:37:40;6.70;99.90
7048;DHT22;3565;53.254;10.352;2023-02-13T00:40:12;6.70;99.90
7048;DHT22;3565;53.254;10.352;2023-02-13T00:42:41;6.70;99.90
7048;DHT22;3565;53.254;10.352;2023-02-13T00:45:11;6.70;99.90
7048;DHT22;3565;53.254;10.352;2023-02-13T00:47:40;6.70;99.90
7048;DHT22;3565;53.254;10.352;2023-02-13T00:50:11;6.70;99.90
7048;DHT22;3565;53.254;10.352;2023-02-13T00:52:40;6.70;99.90
7048;DHT22;3565;53.254;10.352;2023-02-13T00:55:09;6.60;99.90
7048;DHT22;3565;53.254;10.352;2023-02-13T00:57:39;6.60;99.90
7048;DHT22;3565;53.254;10.352;2023-02-13T01:00:10;6.60;99.90
7048;DHT22;3565;53.254;10.352;2023-02-13T01:02:40;6.60;99.90
7048;DHT22;3565;53.254;10.352;2023-02-13T01:05:09;6.60;99.90
7048;DHT22;3565;53.254;10.352;2023-02-13T01:07:39;6.60;99.90
7048;DHT22;3565;53.254;10.352;2023-02-13T01:10:09;6.60;99.90
7048;DHT22;3565;53.254;10.352;2023-02-13T01:12:39;6.70;99.90
7048;DHT22;3565;53.254;10.352;2023-02-13T01:15:10;6.70;99.90
7048;DHT22;3565;53.254;10.352;2023-02-13T01:17:39;6.70;99.90
7048;DHT22;3565;53.254;10.352;2023-02-13T01:20:10;6.70;99.90
7048;DHT22;3565;53.254;10.352;2023-02-13T01:22:41;6.70;99.90
7048;DHT22;3565;53.254;10.352;2023-02-13T01:25:13;6.80;99.90
7048;DHT22;3565;53.254;10.352;2023-02-13T01:27:43;6.70;99.90
7048;DHT22;3565;53.254;10.352;2023-02-13T01:30:14;6.80;99.90
7048;DHT22;3565;53.254;10.352;2023-02-13T01:32:45;6.70;99.90
7048;DHT22;3565;53.254;10.352;2023-02-13T01:35:16;6.70;99.90
7048;DHT22;3565;53.254;10.352;2023-02-13T01:37:45;6.70;99.90
7048;DHT22;3565;53.254;10.352;2023-02-13T01:40:15;6.70;99.90
7048;DHT22;3565;53.254;10.352;2023-02-13T01:42:44;6.70;99.90
7048;DHT22;3565;53.254;10.352;2023-02-13T01:45:24;6.70;99.90
7048;DHT22;3565;53.254;10.352;2023-02-13T01:47:56;6.60;99.90
7048;DHT22;3565;53.254;10.352;2023-02-13T01:50:29;6.60;99.90
7048;DHT22;3565;53.254;10.352;2023-02-13T01:53:01;6.70;99.90
7048;DHT22;3565;53.254;10.352;2023-02-13T01:55:33;6.60;99.90
7048;DHT22;3565;53.254;10.352;2023-02-13T02:00:45;6.60;99.90
7048;DHT22;3565;53.254;10.352;2023-02-13T02:03:19;6.60;99.90
7048;DHT22;3565;53.254;10.352;2023-02-13T02:05:50;6.60;99.90
7048;DHT22;3565;53.254;10.352;2023-02-13T02:08:20;6.70;99.90
7048;DHT22;3565;53.254;10.352;2023-02-13T02:10:49;6.70;99.90
7048;DHT22;3565;53.254;10.352;2023-02-13T02:13:20;6.60;99.90
7048;DHT22;3565;53.254;10.352;2023-02-13T02:15:50;6.70;99.90
7048;DHT22;3565;53.254;10.352;2023-02-13T02:18:21;6.60;99.90
7048;DHT22;3565;53.254;10.352;2023-02-13T02:31:00;6.60;99.90
7048;DHT22;3565;53.254;10.352;2023-02-13T02:33:36;6.60;99.90
7048;DHT22;3565;53.254;10.352;2023-02-13T02:36:15;6.60;99.90
7048;DHT22;3565;53.254;10.352;2023-02-13T02:38:55;6.60;99.90
7048;DHT22;3565;53.254;10.352;2023-02-13T02:44:14;6.50;99.90
7048;DHT22;3565;53.254;10.352;2023-02-13T02:46:49;6.50;99.90
7048;DHT22;3565;53.254;10.352;2023-02-13T02:49:20;6.40;99.90
7048;DHT22;3565;53.254;10.352;2023-02-13T02:55:03;6.40;99.90
7048;DHT22;3565;53.254;10.352;2023-02-13T02:57:38;6.40;99.90
7048;DHT22;3565;53.254;10.352;2023-02-13T03:00:28;6.40;99.90
7048;DHT22;3565;53.254;10.352;2023-02-13T03:03:19;6.50;99.90
7048;DHT22;3565;53.254;10.352;2023-02-13T03:06:11;6.40;99.90
7048;DHT22;3565;53.254;10.352;2023-02-13T03:08:42;6.40;99.90
7048;DHT22;3565;53.254;10.352;2023-02-13T03:11:29;6.50;99.90
7048;DHT22;3565;53.254;10.352;2023-02-13T03:16:58;6.40;99.90
7048;DHT22;3565;53.254;10.352;2023-02-13T03:19:55;6.40;99.90
7048;DHT22;3565;53.254;10.352;2023-02-13T03:22:48;6.40;99.90
7048;DHT22;3565;53.254;10.352;2023-02-13T03:25:21;6.40;99.90
7048;DHT22;3565;53.254;10.352;2023-02-13T03:27:56;6.40;99.90
7048;DHT22;3565;53.254;10.352;2023-02-13T03:30:51;6.40;99.90
7048;DHT22;3565;53.254;10.352;2023-02-13T03:33:29;6.30;99.90
7048;DHT22;3565;53.254;10.352;2023-02-13T03:36:02;6.30;99.90
7048;DHT22;3565;53.254;10.352;2023-02-13T03:38:52;6.30;99.90
7048;DHT22;3565;53.254;10.352;2023-02-13T03:44:05;6.30;99.90
7048;DHT22;3565;53.254;10.352;2023-02-13T03:46:37;6.40;99.90
7048;DHT22;3565;53.254;10.352;2023-02-13T03:49:11;6.30;99.90
7048;DHT22;3565;53.254;10.352;2023-02-13T03:52:01;6.30;99.90
7048;DHT22;3565;53.254;10.352;2023-02-13T03:54:33;6.30;99.90
7048;DHT22;3565;53.254;10.352;2023-02-13T03:57:23;6.30;99.90
7048;DHT22;3565;53.254;10.352;2023-02-13T04:00:14;6.30;99.90
7048;DHT22;3565;53.254;10.352;2023-02-13T04:02:49;6.30;99.90
7048;DHT22;3565;53.254;10.352;2023-02-13T04:05:21;6.20;99.90
7048;DHT22;3565;53.254;10.352;2023-02-13T04:07:51;6.30;99.90
7048;DHT22;3565;53.254;10.352;2023-02-13T04:10:22;6.30;99.90
7048;DHT22;3565;53.254;10.352;2023-02-13T04:12:59;6.20;99.90
7048;DHT22;3565;53.254;10.352;2023-02-13T04:15:30;6.20;99.90
7048;DHT22;3565;53.254;10.352;2023-02-13T04:18:02;6.30;99.90
7048;DHT22;3565;53.254;10.352;2023-02-13T04:20:33;6.30;99.90
7048;DHT22;3565;53.254;10.352;2023-02-13T04:23:06;6.30;99.90
7048;DHT22;3565;53.254;10.352;2023-02-13T04:25:36;6.30;99.90
7048;DHT22;3565;53.254;10.352;2023-02-13T04:30:44;6.20;99.90
7048;DHT22;3565;53.254;10.352;2023-02-13T04:33:14;6.20;99.90
7048;DHT22;3565;53.254;10.352;2023-02-13T04:35:43;6.10;99.90
7048;DHT22;3565;53.254;10.352;2023-02-13T04:38:12;6.20;99.90
7048;DHT22;3565;53.254;10.352;2023-02-13T04:40:41;6.20;99.90
7048;DHT22;3565;53.254;10.352;2023-02-13T04:43:12;6.20;99.90
7048;DHT22;3565;53.254;10.352;2023-02-13T04:45:42;6.20;99.90
7048;DHT22;3565;53.254;10.352;2023-02-13T04:48:12;6.20;99.90
7048;DHT22;3565;53.254;10.352;2023-02-13T04:50:41;6.20;99.90
7048;DHT22;3565;53.254;10.352;2023-02-13T04:53:11;6.10;99.90
7048;DHT22;3565;53.254;10.352;2023-02-13T04:55:41;6.10;99.90
7048;DHT22;3565;53.254;10.352;2023-02-13T04:58:11;6.10;99.90
7048;DHT22;3565;53.254;10.352;2023-02-13T05:00:40;6.20;99.90
7048;DHT22;3565;53.254;10.352;2023-02-13T05:03:12;6.20;99.90
7048;DHT22;3565;53.254;10.352;2023-02-13T05:05:41;6.20;99.90
7048;DHT22;3565;53.254;10.352;2023-02-13T05:08:11;6.10;99.90
7048;DHT22;3565;53.254;10.352;2023-02-13T05:10:41;6.20;99.90
7048;DHT22;3565;53.254;10.352;2023-02-13T05:13:10;6.20;99.90
7048;DHT22;3565;53.254;10.352;2023-02-13T05:18:21;6.10;99.90
7048;DHT22;3565;53.254;10.352;2023-02-13T05:20:50;6.10;99.90
7048;DHT22;3565;53.254;10.352;2023-02-13T05:23:39;6.10;99.90
7048;DHT22;3565;53.254;10.352;2023-02-13T05:26:08;6.10;99.90
7048;DHT22;3565;53.254;10.352;2023-02-13T05:28:38;6.10;99.90
7048;DHT22;3565;53.254;10.352;2023-02-13T05:31:25;6.10;99.90
7048;DHT22;3565;53.254;10.352;2023-02-13T05:33:54;6.10;99.90
7048;DHT22;3565;53.254;10.352;2023-02-13T05:36:24;6.10;99.90
7048;DHT22;3565;53.254;10.352;2023-02-13T05:41:32;6.10;99.90
7048;DHT22;3565;53.254;10.352;2023-02-13T05:44:01;6.10;99.90
7048;DHT22;3565;53.254;10.352;2023-02-13T05:46:30;6.10;99.90
7048;DHT22;3565;53.254;10.352;2023-02-13T05:49:00;6.10;99.90
7048;DHT22;3565;53.254;10.352;2023-02-13T05:51:29;6.10;99.90
7048;DHT22;3565;53.254;10.352;2023-02-13T05:53:59;6.10;99.90
7048;DHT22;3565;53.254;10.352;2023-02-13T05:56:29;6.10;99.90
7048;DHT22;3565;53.254;10.352;2023-02-13T05:58:59;6.10;99.90
7048;DHT22;3565;53.254;10.352;2023-02-13T06:01:29;6.10;99.90
7048;DHT22;3565;53.254;10.352;2023-02-13T06:03:58;6.00;99.90
7048;DHT22;3565;53.254;10.352;2023-02-13T06:06:27;6.10;99.90
7048;DHT22;3565;53.254;10.352;2023-02-13T06:08:56;6.00;99.90
7048;DHT22;3565;53.254;10.352;2023-02-13T06:11:25;6.00;99.90
7048;DHT22;3565;53.254;10.352;2023-02-13T06:16:32;6.10;99.90
7048;DHT22;3565;53.254;10.352;2023-02-13T06:19:01;6.10;99.90
7048;DHT22;3565;53.254;10.352;2023-02-13T06:21:31;6.10;99.90
7048;DHT22;3565;53.254;10.352;2023-02-13T06:24:03;6.10;99.90
7048;DHT22;3565;53.254;10.352;2023-02-13T06:26:33;6.10;99.90
7048;DHT22;3565;53.254;10.352;2023-02-13T06:31:41;6.10;99.90
7048;DHT22;3565;53.254;10.352;2023-02-13T06:34:11;6.10;99.90
7048;DHT22;3565;53.254;10.352;2023-02-13T06:36:40;6.10;99.90
7048;DHT22;3565;53.254;10.352;2023-02-13T06:39:10;6.10;99.90
7048;DHT22;3565;53.254;10.352;2023-02-13T06:41:40;6.00;99.90
7048;DHT22;3565;53.254;10.352;2023-02-13T06:46:48;6.00;99.90
7048;DHT22;3565;53.254;10.352;2023-02-13T06:51:56;6.00;99.90
7048;DHT22;3565;53.254;10.352;2023-02-13T06:54:25;6.00;99.90
7048;DHT22;3565;53.254;10.352;2023-02-13T06:56:54;6.10;99.90
7048;DHT22;3565;53.254;10.352;2023-02-13T06:59:24;6.10;99.90
7048;DHT22;3565;53.254;10.352;2023-02-13T07:01:53;6.00;99.90
7048;DHT22;3565;53.254;10.352;2023-02-13T07:04:23;6.10;99.90
7048;DHT22;3565;53.254;10.352;2023-02-13T07:06:54;6.10;99.90
7048;DHT22;3565;53.254;10.352;2023-02-13T07:09:24;6.10;99.90
7048;DHT22;3565;53.254;10.352;2023-02-13T07:11:54;6.10;99.90
7048;DHT22;3565;53.254;10.352;2023-02-13T07:14:23;6.10;99.90
7048;DHT22;3565;53.254;10.352;2023-02-13T07:16:52;6.10;99.90
7048;DHT22;3565;53.254;10.352;2023-02-13T07:19:22;6.10;99.90
7048;DHT22;3565;53.254;10.352;2023-02-13T07:21:51;6.10;99.90
7048;DHT22;3565;53.254;10.352;2023-02-13T07:24:20;6.10;99.90
7048;DHT22;3565;53.254;10.352;2023-02-13T07:26:50;6.10;99.90
7048;DHT22;3565;53.254;10.352;2023-02-13T07:29:19;6.20;99.90
7048;DHT22;3565;53.254;10.352;2023-02-13T07:31:48;6.20;99.90
7048;DHT22;3565;53.254;10.352;2023-02-13T07:34:17;6.20;99.90
7048;DHT22;3565;53.254;10.352;2023-02-13T07:36:47;6.20;99.90
7048;DHT22;3565;53.254;10.352;2023-02-13T07:39:16;6.20;99.90
7048;DHT22;3565;53.254;10.352;2023-02-13T07:41:46;6.20;99.90
7048;DHT22;3565;53.254;10.352;2023-02-13T07:44:16;6.30;99.90
7048;DHT22;3565;53.254;10.352;2023-02-13T07:46:45;6.20;99.90
7048;DHT22;3565;53.254;10.352;2023-02-13T07:49:14;6.30;99.90
7048;DHT22;3565;53.254;10.352;2023-02-13T07:51:44;6.30;99.90
7048;DHT22;3565;53.254;10.352;2023-02-13T07:54:13;6.20;99.90
7048;DHT22;3565;53.254;10.352;2023-02-13T07:56:43;6.20;99.90
7048;DHT22;3565;53.254;10.352;2023-02-13T07:59:13;6.20;99.90
7048;DHT22;3565;53.254;10.352;2023-02-13T08:01:42;6.30;99.90
7048;DHT22;3565;53.254;10.352;2023-02-13T08:04:11;6.40;99.90
7048;DHT22;3565;53.254;10.352;2023-02-13T08:06:41;6.40;99.90
7048;DHT22;3565;53.254;10.352;2023-02-13T08:09:17;6.40;99.90
7048;DHT22;3565;53.254;10.352;2023-02-13T08:12:06;6.40;99.90
7048;DHT22;3565;53.254;10.352;2023-02-13T08:14:36;6.40;99.90
7048;DHT22;3565;53.254;10.352;2023-02-13T08:17:05;6.40;99.90
7048;DHT22;3565;53.254;10.352;2023-02-13T08:19:35;6.40;99.90
7048;DHT22;3565;53.254;10.352;2023-02-13T08:22:04;6.40;99.90
7048;DHT22;3565;53.254;10.352;2023-02-13T08:24:34;6.40;99.90
7048;DHT22;3565;53.254;10.352;2023-02-13T08:27:03;6.40;99.90
7048;DHT22;3565;53.254;10.352;2023-02-13T08:29:33;6.50;99.90
7048;DHT22;3565;53.254;10.352;2023-02-13T08:32:02;6.50;99.90
7048;DHT22;3565;53.254;10.352;2023-02-13T08:34:32;6.50;99.90
7048;DHT22;3565;53.254;10.352;2023-02-13T08:37:03;6.60;99.90
7048;DHT22;3565;53.254;10.352;2023-02-13T08:39:33;6.60;99.90
7048;DHT22;3565;53.254;10.352;2023-02-13T08:42:02;6.70;99.90
7048;DHT22;3565;53.254;10.352;2023-02-13T08:44:31;6.70;99.90
7048;DHT22;3565;53.254;10.352;2023-02-13T08:47:01;6.70;99.90
7048;DHT22;3565;53.254;10.352;2023-02-13T08:49:31;6.80;99.90
7048;DHT22;3565;53.254;10.352;2023-02-13T08:52:01;6.80;99.90
7048;DHT22;3565;53.254;10.352;2023-02-13T08:54:33;6.80;99.90
7048;DHT22;3565;53.254;10.352;2023-02-13T08:57:02;6.90;99.90
7048;DHT22;3565;53.254;10.352;2023-02-13T08:59:32;6.80;88.70
7048;DHT22;3565;53.254;10.352;2023-02-13T09:02:01;6.80;56.20
7048;DHT22;3565;53.254;10.352;2023-02-13T09:04:30;6.80;65.50
7048;DHT22;3565;53.254;10.352;2023-02-13T09:07:00;6.80;55.60
7048;DHT22;3565;53.254;10.352;2023-02-13T09:09:29;6.80;66.90
7048;DHT22;3565;53.254;10.352;2023-02-13T09:11:59;6.90;50.00
7048;DHT22;3565;53.254;10.352;2023-02-13T09:14:28;6.90;46.30
7048;DHT22;3565;53.254;10.352;2023-02-13T09:16:58;6.90;39.00
7048;DHT22;3565;53.254;10.352;2023-02-13T09:19:28;7.00;46.30
7048;DHT22;3565;53.254;10.352;2023-02-13T09:21:58;7.10;53.70
7048;DHT22;3565;53.254;10.352;2023-02-13T09:24:45;7.10;46.70
7048;DHT22;3565;53.254;10.352;2023-02-13T09:27:15;7.20;45.30
7048;DHT22;3565;53.254;10.352;2023-02-13T09:29:45;7.10;24.40
7048;DHT22;3565;53.254;10.352;2023-02-13T09:32:14;7.10;5.20
7048;DHT22;3565;53.254;10.352;2023-02-13T09:34:44;7.10;8.50
7048;DHT22;3565;53.254;10.352;2023-02-13T09:37:13;7.10;1.00
7048;DHT22;3565;53.254;10.352;2023-02-13T09:39:43;7.20;1.00
7048;DHT22;3565;53.254;10.352;2023-02-13T09:42:17;7.20;1.00
7048;DHT22;3565;53.254;10.352;2023-02-13T09:44:50;7.30;1.00
7048;DHT22;3565;53.254;10.352;2023-02-13T09:47:25;7.10;1.00
7048;DHT22;3565;53.254;10.352;2023-02-13T09:49:57;7.20;1.00
7048;DHT22;3565;53.254;10.352;2023-02-13T09:52:30;7.40;1.00
7048;DHT22;3565;53.254;10.352;2023-02-13T09:55:00;7.40;1.00
7048;DHT22;3565;53.254;10.352;2023-02-13T10:00:15;7.60;1.00
7048;DHT22;3565;53.254;10.352;2023-02-13T10:03:03;7.70;1.00
7048;DHT22;3565;53.254;10.352;2023-02-13T10:05:45;7.60;1.00
7048;DHT22;3565;53.254;10.352;2023-02-13T10:08:22;7.60;1.00
7048;DHT22;3565;53.254;10.352;2023-02-13T10:10:55;7.70;1.00
7048;DHT22;3565;53.254;10.352;2023-02-13T10:13:33;7.80;1.00
7048;DHT22;3565;53.254;10.352;2023-02-13T10:16:05;7.90;1.00
7048;DHT22;3565;53.254;10.352;2023-02-13T10:21:20;7.90;1.00
7048;DHT22;3565;53.254;10.352;2023-02-13T10:23:53;8.00;1.00
7048;DHT22;3565;53.254;10.352;2023-02-13T10:26:26;7.90;1.00
7048;DHT22;3565;53.254;10.352;2023-02-13T10:29:01;8.00;1.00
7048;DHT22;3565;53.254;10.352;2023-02-13T10:31:49;8.10;1.00
7048;DHT22;3565;53.254;10.352;2023-02-13T10:34:24;8.00;99.90
7048;DHT22;3565;53.254;10.352;2023-02-13T10:36:55;8.10;1.00
7048;DHT22;3565;53.254;10.352;2023-02-13T10:39:26;8.10;1.00
7048;DHT22;3565;53.254;10.352;2023-02-13T10:42:00;8.10;99.90
7048;DHT22;3565;53.254;10.352;2023-02-13T10:44:45;8.10;99.90
7048;DHT22;3565;53.254;10.352;2023-02-13T10:47:22;8.10;99.90
7048;DHT22;3565;53.254;10.352;2023-02-13T10:50:05;8.20;99.90
7048;DHT22;3565;53.254;10.352;2023-02-13T10:52:40;8.40;99.90
7048;DHT22;3565;53.254;10.352;2023-02-13T10:55:25;8.40;99.90
7048;DHT22;3565;53.254;10.352;2023-02-13T10:58:03;8.20;1.00
7048;DHT22;3565;53.254;10.352;2023-02-13T11:03:19;8.40;1.00
7048;DHT22;3565;53.254;10.352;2023-02-13T11:05:49;8.40;1.00
7048;DHT22;3565;53.254;10.352;2023-02-13T11:08:22;8.40;1.00
7048;DHT22;3565;53.254;10.352;2023-02-13T11:10:52;8.40;1.00
7048;DHT22;3565;53.254;10.352;2023-02-13T11:13:22;8.60;99.90
7048;DHT22;3565;53.254;10.352;2023-02-13T11:16:01;8.60;99.90
7048;DHT22;3565;53.254;10.352;2023-02-13T11:18:32;8.70;99.90
7048;DHT22;3565;53.254;10.352;2023-02-13T11:21:07;8.50;99.90
7048;DHT22;3565;53.254;10.352;2023-02-13T11:23:43;8.70;99.90
7048;DHT22;3565;53.254;10.352;2023-02-13T11:26:20;8.80;99.90
7048;DHT22;3565;53.254;10.352;2023-02-13T11:28:48;8.70;99.90
7048;DHT22;3565;53.254;10.352;2023-02-13T11:31:27;8.70;1.00
7048;DHT22;3565;53.254;10.352;2023-02-13T11:33:58;8.80;1.00
7048;DHT22;3565;53.254;10.352;2023-02-13T11:36:30;8.90;99.90
7048;DHT22;3565;53.254;10.352;2023-02-13T11:39:00;8.90;1.00
7048;DHT22;3565;53.254;10.352;2023-02-13T11:41:36;8.90;99.90
7048;DHT22;3565;53.254;10.352;2023-02-13T11:44:17;8.90;1.00
7048;DHT22;3565;53.254;10.352;2023-02-13T11:46:48;8.70;1.00
7048;DHT22;3565;53.254;10.352;2023-02-13T11:49:20;8.60;23.40
7048;DHT22;3565;53.254;10.352;2023-02-13T11:51:51;8.50;1.00
7048;DHT22;3565;53.254;10.352;2023-02-13T11:54:30;8.70;99.90
7048;DHT22;3565;53.254;10.352;2023-02-13T11:57:02;8.80;1.00
7048;DHT22;3565;53.254;10.352;2023-02-13T11:59:38;9.00;99.90
7048;DHT22;3565;53.254;10.352;2023-02-13T12:02:12;9.10;1.00
7048;DHT22;3565;53.254;10.352;2023-02-13T12:04:42;9.20;1.00
7048;DHT22;3565;53.254;10.352;2023-02-13T12:07:16;9.10;99.90
7048;DHT22;3565;53.254;10.352;2023-02-13T12:09:50;9.10;1.00
7048;DHT22;3565;53.254;10.352;2023-02-13T12:12:21;9.00;1.00
7048;DHT22;3565;53.254;10.352;2023-02-13T12:14:53;8.60;30.30
7048;DHT22;3565;53.254;10.352;2023-02-13T12:17:25;8.60;99.90
7048;DHT22;3565;53.254;10.352;2023-02-13T12:19:56;8.70;1.00
7048;DHT22;3565;53.254;10.352;2023-02-13T12:22:31;8.90;99.90
7048;DHT22;3565;53.254;10.352;2023-02-13T12:28:23;8.80;1.00
7048;DHT22;3565;53.254;10.352;2023-02-13T12:31:10;9.00;99.90
7048;DHT22;3565;53.254;10.352;2023-02-13T12:37:12;9.00;99.90
7048;DHT22;3565;53.254;10.352;2023-02-13T12:42:29;9.20;1.00
7048;DHT22;3565;53.254;10.352;2023-02-13T12:45:13;9.10;1.00
7048;DHT22;3565;53.254;10.352;2023-02-13T12:47:50;9.10;1.00
7048;DHT22;3565;53.254;10.352;2023-02-13T12:50:35;8.80;99.90
7048;DHT22;3565;53.254;10.352;2023-02-13T12:56:25;8.90;1.00
7048;DHT22;3565;53.254;10.352;2023-02-13T12:59:08;8.90;99.90
7048;DHT22;3565;53.254;10.352;2023-02-13T13:04:53;8.90;1.00
7048;DHT22;3565;53.254;10.352;2023-02-13T13:07:31;8.80;1.00
7048;DHT22;3565;53.254;10.352;2023-02-13T13:10:22;8.80;99.90
7048;DHT22;3565;53.254;10.352;2023-02-13T13:12:54;8.70;99.90
7048;DHT22;3565;53.254;10.352;2023-02-13T13:15:30;8.90;99.90
7048;DHT22;3565;53.254;10.352;2023-02-13T13:18:04;9.00;99.90
7048;DHT22;3565;53.254;10.352;2023-02-13T13:20:44;9.10;99.90
7048;DHT22;3565;53.254;10.352;2023-02-13T13:23:19;9.20;99.90
7048;DHT22;3565;53.254;10.352;2023-02-13T13:25:54;9.00;99.90
7048;DHT22;3565;53.254;10.352;2023-02-13T13:28:25;9.10;99.90
7048;DHT22;3565;53.254;10.352;2023-02-13T13:30:55;9.10;99.90
7048;DHT22;3565;53.254;10.352;2023-02-13T13:33:26;9.00;99.90
7048;DHT22;3565;53.254;10.352;2023-02-13T13:36:00;9.00;1.00
7048;DHT22;3565;53.254;10.352;2023-02-13T13:41:13;9.00;99.90
7048;DHT22;3565;53.254;10.352;2023-02-13T13:43:49;8.80;99.90
7048;DHT22;3565;53.254;10.352;2023-02-13T13:46:20;8.80;1.00
7048;DHT22;3565;53.254;10.352;2023-02-13T13:48:58;8.90;99.90
7048;DHT22;3565;53.254;10.352;2023-02-13T13:51:28;8.80;99.90
7048;DHT22;3565;53.254;10.352;2023-02-13T13:54:21;8.70;1.00
7048;DHT22;3565;53.254;10.352;2023-02-13T13:57:09;8.60;1.00
7048;DHT22;3565;53.254;10.352;2023-02-13T14:06:08;8.70;99.90
7048;DHT22;3565;53.254;10.352;2023-02-13T14:11:44;8.80;99.90
7048;DHT22;3565;53.254;10.352;2023-02-13T14:17:48;8.60;1.00
7048;DHT22;3565;53.254;10.352;2023-02-13T14:20:36;8.50;86.70
7048;DHT22;3565;53.254;10.352;2023-02-13T14:23:15;8.50;99.90
7048;DHT22;3565;53.254;10.352;2023-02-13T14:25:45;8.40;1.00
7048;DHT22;3565;53.254;10.352;2023-02-13T14:28:25;8.40;99.90
7048;DHT22;3565;53.254;10.352;2023-02-13T14:31:04;8.40;99.90
7048;DHT22;3565;53.254;10.352;2023-02-13T14:33:34;8.40;99.90
7048;DHT22;3565;53.254;10.352;2023-02-13T14:36:06;8.40;99.90
7048;DHT22;3565;53.254;10.352;2023-02-13T14:38:36;8.40;99.90
7048;DHT22;3565;53.254;10.352;2023-02-13T14:41:22;8.50;99.90
7048;DHT22;3565;53.254;10.352;2023-02-13T14:43:39;8.50;99.90
7048;DHT22;3565;53.254;10.352;2023-02-13T14:46:32;8.50;1.00
7048;DHT22;3565;53.254;10.352;2023-02-13T14:49:05;8.50;99.90
7048;DHT22;3565;53.254;10.352;2023-02-13T14:51:39;8.30;1.00
7048;DHT22;3565;53.254;10.352;2023-02-13T14:54:14;8.20;99.90
7048;DHT22;3565;53.254;10.352;2023-02-13T14:56:45;8.10;1.00
7048;DHT22;3565;53.254;10.352;2023-02-13T14:59:17;8.10;99.90
7048;DHT22;3565;53.254;10.352;2023-02-13T15:01:51;8.10;1.00
7048;DHT22;3565;53.254;10.352;2023-02-13T15:04:26;8.10;1.00
7048;DHT22;3565;53.254;10.352;2023-02-13T15:06:58;8.10;1.00
7048;DHT22;3565;53.254;10.352;2023-02-13T15:09:31;8.10;1.00
7048;DHT22;3565;53.254;10.352;2023-02-13T15:12:02;8.00;1.00
7048;DHT22;3565;53.254;10.352;2023-02-13T15:14:33;7.90;36.70
7048;DHT22;3565;53.254;10.352;2023-02-13T15:17:06;7.90;99.90
7048;DHT22;3565;53.254;10.352;2023-02-13T15:19:41;7.90;99.90
7048;DHT22;3565;53.254;10.352;2023-02-13T15:22:17;7.90;99.90
7048;DHT22;3565;53.254;10.352;2023-02-13T15:24:48;7.90;99.90
7048;DHT22;3565;53.254;10.352;2023-02-13T15:27:22;7.90;1.00
7048;DHT22;3565;53.254;10.352;2023-02-13T15:29:59;7.80;99.90
7048;DHT22;3565;53.254;10.352;2023-02-13T15:32:31;7.80;1.00
7048;DHT22;3565;53.254;10.352;2023-02-13T15:35:01;7.80;99.90
7048;DHT22;3565;53.254;10.352;2023-02-13T15:37:30;7.80;99.90
7048;DHT22;3565;53.254;10.352;2023-02-13T15:40:18;7.80;44.60
7048;DHT22;3565;53.254;10.352;2023-02-13T15:42:50;7.70;99.90
7048;DHT22;3565;53.254;10.352;2023-02-13T15:45:21;7.70;1.00
7048;DHT22;3565;53.254;10.352;2023-02-13T15:47:51;7.70;1.00
7048;DHT22;3565;53.254;10.352;2023-02-13T15:50:26;7.80;1.00
7048;DHT22;3565;53.254;10.352;2023-02-13T15:52:55;7.70;1.00
7048;DHT22;3565;53.254;10.352;2023-02-13T15:55:26;7.80;99.90
7048;DHT22;3565;53.254;10.352;2023-02-13T15:57:58;7.70;1.00
7048;DHT22;3565;53.254;10.352;2023-02-13T16:00:31;7.70;21.60
7048;DHT22;3565;53.254;10.352;2023-02-13T16:05:44;7.50;99.90
7048;DHT22;3565;53.254;10.352;2023-02-13T16:08:31;7.50;99.90
7048;DHT22;3565;53.254;10.352;2023-02-13T16:14:17;7.50;99.90
7048;DHT22;3565;53.254;10.352;2023-02-13T16:16:50;7.50;99.90
7048;DHT22;3565;53.254;10.352;2023-02-13T16:22:23;7.40;1.00
7048;DHT22;3565;53.254;10.352;2023-02-13T16:24:53;7.40;1.00
7048;DHT22;3565;53.254;10.352;2023-02-13T16:27:25;7.40;1.00
7048;DHT22;3565;53.254;10.352;2023-02-13T16:29:56;7.40;22.70
7048;DHT22;3565;53.254;10.352;2023-02-13T16:32:29;7.40;17.30
7048;DHT22;3565;53.254;10.352;2023-02-13T16:35:16;7.40;1.00
7048;DHT22;3565;53.254;10.352;2023-02-13T16:37:51;7.30;99.90
7048;DHT22;3565;53.254;10.352;2023-02-13T16:43:42;7.20;99.90
7048;DHT22;3565;53.254;10.352;2023-02-13T16:46:24;7.30;99.90
7048;DHT22;3565;53.254;10.352;2023-02-13T16:51:54;7.20;99.90
7048;DHT22;3565;53.254;10.352;2023-02-13T16:54:36;7.20;1.00
7048;DHT22;3565;53.254;10.352;2023-02-13T16:57:17;7.20;1.00
7048;DHT22;3565;53.254;10.352;2023-02-13T16:59:55;7.30;1.00
7048;DHT22;3565;53.254;10.352;2023-02-13T17:02:26;7.30;1.00
7048;DHT22;3565;53.254;10.352;2023-02-13T17:04:58;7.30;1.00
7048;DHT22;3565;53.254;10.352;2023-02-13T17:07:29;7.30;1.00
7048;DHT22;3565;53.254;10.352;2023-02-13T17:10:00;7.20;1.00
7048;DHT22;3565;53.254;10.352;2023-02-13T17:12:34;7.20;99.90
7048;DHT22;3565;53.254;10.352;2023-02-13T17:15:03;7.30;86.50
7048;DHT22;3565;53.254;10.352;2023-02-13T17:17:32;7.30;99.90
7048;DHT22;3565;53.254;10.352;2023-02-13T17:20:01;7.30;1.00
7048;DHT22;3565;53.254;10.352;2023-02-13T17:22:36;7.20;15.20
7048;DHT22;3565;53.254;10.352;2023-02-13T17:25:10;7.10;1.00
7048;DHT22;3565;53.254;10.352;2023-02-13T17:27:38;7.20;99.90
7048;DHT22;3565;53.254;10.352;2023-02-13T17:30:12;7.20;99.90
7048;DHT22;3565;53.254;10.352;2023-02-13T17:32:41;7.10;1.00
7048;DHT22;3565;53.254;10.352;2023-02-13T17:35:12;7.20;99.90
7048;DHT22;3565;53.254;10.352;2023-02-13T17:37:43;7.20;99.90
7048;DHT22;3565;53.254;10.352;2023-02-13T17:40:17;7.10;99.90
7048;DHT22;3565;53.254;10.352;2023-02-13T17:42:49;7.00;1.00
7048;DHT22;3565;53.254;10.352;2023-02-13T17:47:58;7.00;99.90
7048;DHT22;3565;53.254;10.352;2023-02-13T17:50:30;7.10;99.90
7048;DHT22;3565;53.254;10.352;2023-02-13T17:53:01;7.00;25.90
7048;DHT22;3565;53.254;10.352;2023-02-13T17:55:32;7.00;1.00
7048;DHT22;3565;53.254;10.352;2023-02-13T17:58:02;7.00;1.00
7048;DHT22;3565;53.254;10.352;2023-02-13T18:00:32;7.00;1.00
7048;DHT22;3565;53.254;10.352;2023-02-13T18:03:02;7.00;1.00
7048;DHT22;3565;53.254;10.352;2023-02-13T18:05:31;7.20;99.90
7048;DHT22;3565;53.254;10.352;2023-02-13T18:08:02;7.10;99.90
7048;DHT22;3565;53.254;10.352;2023-02-13T18:13:08;7.10;1.00
7048;DHT22;3565;53.254;10.352;2023-02-13T18:15:41;7.00;1.00
7048;DHT22;3565;53.254;10.352;2023-02-13T18:18:11;7.00;99.90
7048;DHT22;3565;53.254;10.352;2023-02-13T18:20:42;7.00;99.90
7048;DHT22;3565;53.254;10.352;2023-02-13T18:23:11;6.90;99.90